sensor_id;sensor_type;location;lat;lon;timestamp;temperature;humidity
29813;DHT22;16707;48.106;11.548;2023-09-30T00:00:14;15.50;99.90
29813;DHT22;16707;48.106;11.548;2023-09-30T00:02:41;15.40;99.90
29813;DHT22;16707;48.106;11.548;2023-09-30T00:05:09;15.40;99.90
29813;DHT22;16707;48.106;11.548;2023-09-30T00:07:36;15.40;99.90
29813;DHT22;16707;48.106;11.548;2023-09-30T00:10:04;15.30;99.90
29813;DHT22;16707;48.106;11.548;2023-09-30T00:12:32;15.30;99.90
29813;DHT22;16707;48.106;11.548;2023-09-30T00:14:59;15.20;99.90
29813;DHT22;16707;48.106;11.548;2023-09-30T00:17:27;15.20;99.90
29813;DHT22;16707;48.106;11.548;2023-09-30T00:19:54;15.20;99.90
29813;DHT22;16707;48.106;11.548;2023-09-30T00:22:21;15.10;99.90
29813;DHT22;16707;48.106;11.548;2023-09-30T00:24:48;15.10;99.90
29813;DHT22;16707;48.106;11.548;2023-09-30T00:27:16;15.30;99.90
29813;DHT22;16707;48.106;11.548;2023-09-30T00:29:43;15.30;99.90
29813;DHT22;16707;48.106;11.548;2023-09-30T00:32:10;15.40;99.90
29813;DHT22;16707;48.106;11.548;2023-09-30T00:34:39;15.50;99.90
29813;DHT22;16707;48.106;11.548;2023-09-30T00:37:06;15.70;99.90
29813;DHT22;16707;48.106;11.548;2023-09-30T00:39:33;15.80;99.90
29813;DHT22;16707;48.106;11.548;2023-09-30T00:42:01;15.80;99.90
29813;DHT22;16707;48.106;11.548;2023-09-30T00:44:30;15.80;99.90
29813;DHT22;16707;48.106;11.548;2023-09-30T00:46:57;15.70;99.90
29813;DHT22;16707;48.106;11.548;2023-09-30T00:49:25;15.60;99.90
29813;DHT22;16707;48.106;11.548;2023-09-30T00:51:54;15.50;99.90
29813;DHT22;16707;48.106;11.548;2023-09-30T00:54:21;15.50;99.90
29813;DHT22;16707;48.106;11.548;2023-09-30T00:56:50;15.30;99.90
29813;DHT22;16707;48.106;11.548;2023-09-30T00:59:18;15.20;99.90
29813;DHT22;16707;48.106;11.548;2023-09-30T01:01:46;15.20;99.90
29813;DHT22;16707;48.106;11.548;2023-09-30T01:04:14;15.10;99.90
29813;DHT22;16707;48.106;11.548;2023-09-30T01:06:41;15.10;99.90
29813;DHT22;16707;48.106;11.548;2023-09-30T01:09:10;15.00;99.90
29813;DHT22;16707;48.106;11.548;2023-09-30T01:11:39;15.00;99.90
29813;DHT22;16707;48.106;11.548;2023-09-30T01:14:24;15.10;99.90
29813;DHT22;16707;48.106;11.548;2023-09-30T01:16:52;15.20;99.90
29813;DHT22;16707;48.106;11.548;2023-09-30T01:19:19;15.20;99.90
29813;DHT22;16707;48.106;11.548;2023-09-30T01:21:47;15.40;99.90
29813;DHT22;16707;48.106;11.548;2023-09-30T01:24:14;15.50;99.90
29813;DHT22;16707;48.106;11.548;2023-09-30T01:26:42;15.60;99.90
29813;DHT22;16707;48.106;11.548;2023-09-30T01:29:09;15.60;99.90
29813;DHT22;16707;48.106;11.548;2023-09-30T01:31:36;15.60;99.90
29813;DHT22;16707;48.106;11.548;2023-09-30T01:34:04;15.60;99.90
29813;DHT22;16707;48.106;11.548;2023-09-30T01:36:31;15.60;99.90
29813;DHT22;16707;48.106;11.548;2023-09-30T01:38:59;15.60;99.90
29813;DHT22;16707;48.106;11.548;2023-09-30T01:41:29;15.50;99.90
29813;DHT22;16707;48.106;11.548;2023-09-30T01:43:56;15.40;99.90
29813;DHT22;16707;48.106;11.548;2023-09-30T01:46:23;15.40;99.90
29813;DHT22;16707;48.106;11.548;2023-09-30T01:48:50;15.30;99.90
29813;DHT22;16707;48.106;11.548;2023-09-30T01:51:17;15.20;99.90
29813;DHT22;16707;48.106;11.548;2023-09-30T01:53:44;15.20;99.90
29813;DHT22;16707;48.106;11.548;2023-09-30T01:56:12;15.20;99.90
29813;DHT22;16707;48.106;11.548;2023-09-30T01:58:39;15.20;99.90
29813;DHT22;16707;48.106;11.548;2023-09-30T02:01:06;15.20;99.90
29813;DHT22;16707;48.106;11.548;2023-09-30T02:03:33;15.20;99.90
29813;DHT22;16707;48.106;11.548;2023-09-30T02:06:00;15.10;99.90
29813;DHT22;16707;48.106;11.548;2023-09-30T02:08:29;15.00;99.90
29813;DHT22;16707;48.106;11.548;2023-09-30T02:10:56;14.90;99.90
29813;DHT22;16707;48.106;11.548;2023-09-30T02:13:24;14.90;99.90
29813;DHT22;16707;48.106;11.548;2023-09-30T02:15:51;14.90;99.90
29813;DHT22;16707;48.106;11.548;2023-09-30T02:18:20;14.90;99.90
29813;DHT22;16707;48.106;11.548;2023-09-30T02:20:49;14.90;99.90
29813;DHT22;16707;48.106;11.548;2023-09-30T02:23:16;14.90;99.90
29813;DHT22;16707;48.106;11.548;2023-09-30T02:25:44;15.00;99.90
29813;DHT22;16707;48.106;11.548;2023-09-30T02:28:11;15.00;99.90
29813;DHT22;16707;48.106;11.548;2023-09-30T02:30:40;15.10;99.90
29813;DHT22;16707;48.106;11.548;2023-09-30T02:33:07;15.20;99.90
29813;DHT22;16707;48.106;11.548;2023-09-30T02:35:34;15.30;99.90
29813;DHT22;16707;48.106;11.548;2023-09-30T02:38:04;15.30;99.90
29813;DHT22;16707;48.106;11.548;2023-09-30T02:40:32;15.30;99.90
29813;DHT22;16707;48.106;11.548;2023-09-30T02:42:59;15.30;99.90
29813;DHT22;16707;48.106;11.548;2023-09-30T02:45:26;15.30;99.90
29813;DHT22;16707;48.106;11.548;2023-09-30T02:47:54;15.40;99.90
29813;DHT22;16707;48.106;11.548;2023-09-30T02:50:21;15.40;99.90
29813;DHT22;16707;48.106;11.548;2023-09-30T02:52:48;15.40;99.90
29813;DHT22;16707;48.106;11.548;2023-09-30T02:55:15;15.30;99.90
29813;DHT22;16707;48.106;11.548;2023-09-30T02:57:42;15.30;99.90
29813;DHT22;16707;48.106;11.548;2023-09-30T03:00:12;15.20;99.90
29813;DHT22;16707;48.106;11.548;2023-09-30T03:02:49;15.20;99.90
29813;DHT22;16707;48.106;11.548;2023-09-30T03:05:18;15.00;99.90
29813;DHT22;16707;48.106;11.548;2023-09-30T03:07:45;14.90;99.90
29813;DHT22;16707;48.106;11.548;2023-09-30T03:10:12;14.80;99.90
29813;DHT22;16707;48.106;11.548;2023-09-30T03:12:46;14.80;99.90
29813;DHT22;16707;48.106;11.548;2023-09-30T03:15:14;14.90;99.90
29813;DHT22;16707;48.106;11.548;2023-09-30T03:17:41;14.80;99.90
29813;DHT22;16707;48.106;11.548;2023-09-30T03:20:09;14.80;99.90
29813;DHT22;16707;48.106;11.548;2023-09-30T03:22:40;14.70;99.90
29813;DHT22;16707;48.106;11.548;2023-09-30T03:25:09;14.70;99.90
29813;DHT22;16707;48.106;11.548;2023-09-30T03:27:37;14.70;99.90
29813;DHT22;16707;48.106;11.548;2023-09-30T03:30:06;14.60;99.90
29813;DHT22;16707;48.106;11.548;2023-09-30T03:32:34;14.60;99.90
29813;DHT22;16707;48.106;11.548;2023-09-30T03:35:02;14.60;99.90
29813;DHT22;16707;48.106;11.548;2023-09-30T03:37:31;14.50;99.90
29813;DHT22;16707;48.106;11.548;2023-09-30T03:39:59;14.40;99.90
29813;DHT22;16707;48.106;11.548;2023-09-30T03:42:33;14.40;99.90
29813;DHT22;16707;48.106;11.548;2023-09-30T03:45:00;14.40;99.90
29813;DHT22;16707;48.106;11.548;2023-09-30T03:47:29;14.50;99.90
29813;DHT22;16707;48.106;11.548;2023-09-30T03:49:58;14.60;99.90
29813;DHT22;16707;48.106;11.548;2023-09-30T03:52:25;14.70;99.90
29813;DHT22;16707;48.106;11.548;2023-09-30T03:54:53;14.70;99.90
29813;DHT22;16707;48.106;11.548;2023-09-30T03:57:22;14.80;99.90
29813;DHT22;16707;48.106;11.548;2023-09-30T03:59:49;14.80;99.90
29813;DHT22;16707;48.106;11.548;2023-09-30T04:02:16;14.80;99.90
29813;DHT22;16707;48.106;11.548;2023-09-30T04:04:43;14.90;99.90
29813;DHT22;16707;48.106;11.548;2023-09-30T04:07:11;15.00;99.90
29813;DHT22;16707;48.106;11.548;2023-09-30T04:09:38;15.10;99.90
29813;DHT22;16707;48.106;11.548;2023-09-30T04:12:06;15.10;99.90
29813;DHT22;16707;48.106;11.548;2023-09-30T04:14:34;15.20;99.90
29813;DHT22;16707;48.106;11.548;2023-09-30T04:17:01;15.30;99.90
29813;DHT22;16707;48.106;11.548;2023-09-30T04:19:29;15.30;99.90
29813;DHT22;16707;48.106;11.548;2023-09-30T04:21:56;15.30;99.90
29813;DHT22;16707;48.106;11.548;2023-09-30T04:24:23;15.30;99.90
29813;DHT22;16707;48.106;11.548;2023-09-30T04:26:50;15.30;99.90
29813;DHT22;16707;48.106;11.548;2023-09-30T04:29:22;15.20;99.90
29813;DHT22;16707;48.106;11.548;2023-09-30T04:31:50;15.20;99.90
29813;DHT22;16707;48.106;11.548;2023-09-30T04:34:18;15.10;99.90
29813;DHT22;16707;48.106;11.548;2023-09-30T04:36:45;15.00;99.90
29813;DHT22;16707;48.106;11.548;2023-09-30T04:39:12;15.00;99.90
29813;DHT22;16707;48.106;11.548;2023-09-30T04:41:40;14.90;99.90
29813;DHT22;16707;48.106;11.548;2023-09-30T04:44:08;14.80;99.90
29813;DHT22;16707;48.106;11.548;2023-09-30T04:46:37;14.70;99.90
29813;DHT22;16707;48.106;11.548;2023-09-30T04:49:07;14.60;99.90
29813;DHT22;16707;48.106;11.548;2023-09-30T04:51:34;14.50;99.90
29813;DHT22;16707;48.106;11.548;2023-09-30T04:54:01;14.50;99.90
29813;DHT22;16707;48.106;11.548;2023-09-30T04:56:29;14.30;99.90
29813;DHT22;16707;48.106;11.548;2023-09-30T04:58:56;14.30;99.90
29813;DHT22;16707;48.106;11.548;2023-09-30T05:01:24;14.20;99.90
29813;DHT22;16707;48.106;11.548;2023-09-30T05:03:51;14.10;99.90
29813;DHT22;16707;48.106;11.548;2023-09-30T05:06:20;14.00;99.90
29813;DHT22;16707;48.106;11.548;2023-09-30T05:08:47;14.00;99.90
29813;DHT22;16707;48.106;11.548;2023-09-30T05:11:14;13.90;99.90
29813;DHT22;16707;48.106;11.548;2023-09-30T05:13:41;13.80;99.90
29813;DHT22;16707;48.106;11.548;2023-09-30T05:16:09;13.80;99.90
29813;DHT22;16707;48.106;11.548;2023-09-30T05:18:38;13.80;99.90
29813;DHT22;16707;48.106;11.548;2023-09-30T05:21:05;13.90;99.90
29813;DHT22;16707;48.106;11.548;2023-09-30T05:23:34;14.00;99.90
29813;DHT22;16707;48.106;11.548;2023-09-30T05:26:01;14.10;99.90
29813;DHT22;16707;48.106;11.548;2023-09-30T05:28:28;14.20;99.90
29813;DHT22;16707;48.106;11.548;2023-09-30T05:30:57;14.20;99.90
29813;DHT22;16707;48.106;11.548;2023-09-30T05:33:24;14.30;99.90
29813;DHT22;16707;48.106;11.548;2023-09-30T05:35:51;14.30;99.90
29813;DHT22;16707;48.106;11.548;2023-09-30T05:38:18;14.40;99.90
29813;DHT22;16707;48.106;11.548;2023-09-30T05:40:47;14.40;99.90
29813;DHT22;16707;48.106;11.548;2023-09-30T05:43:14;14.50;99.90
29813;DHT22;16707;48.106;11.548;2023-09-30T05:45:42;14.50;99.90
29813;DHT22;16707;48.106;11.548;2023-09-30T05:48:15;14.50;99.90
29813;DHT22;16707;48.106;11.548;2023-09-30T05:50:42;14.60;99.90
29813;DHT22;16707;48.106;11.548;2023-09-30T05:53:09;14.60;99.90
29813;DHT22;16707;48.106;11.548;2023-09-30T05:55:37;14.70;99.90
29813;DHT22;16707;48.106;11.548;2023-09-30T05:58:08;14.80;99.90
29813;DHT22;16707;48.106;11.548;2023-09-30T06:00:35;14.90;99.90
29813;DHT22;16707;48.106;11.548;2023-09-30T06:03:03;15.00;99.90
29813;DHT22;16707;48.106;11.548;2023-09-30T06:05:31;15.10;99.90
29813;DHT22;16707;48.106;11.548;2023-09-30T06:08:01;15.30;99.90
29813;DHT22;16707;48.106;11.548;2023-09-30T06:10:30;15.30;99.90
29813;DHT22;16707;48.106;11.548;2023-09-30T06:12:57;15.60;99.90
29813;DHT22;16707;48.106;11.548;2023-09-30T06:15:26;15.80;99.90
29813;DHT22;16707;48.106;11.548;2023-09-30T06:17:54;16.20;99.90
29813;DHT22;16707;48.106;11.548;2023-09-30T06:20:22;16.30;99.90
29813;DHT22;16707;48.106;11.548;2023-09-30T06:22:52;16.40;99.90
29813;DHT22;16707;48.106;11.548;2023-09-30T06:25:20;16.50;99.90
29813;DHT22;16707;48.106;11.548;2023-09-30T06:27:49;16.60;99.90
29813;DHT22;16707;48.106;11.548;2023-09-30T06:30:17;16.70;99.90
29813;DHT22;16707;48.106;11.548;2023-09-30T06:32:46;16.90;99.90
29813;DHT22;16707;48.106;11.548;2023-09-30T06:35:13;17.20;99.90
29813;DHT22;16707;48.106;11.548;2023-09-30T06:37:41;17.40;99.90
29813;DHT22;16707;48.106;11.548;2023-09-30T06:40:11;17.70;99.90
29813;DHT22;16707;48.106;11.548;2023-09-30T06:42:39;17.90;99.90
29813;DHT22;16707;48.106;11.548;2023-09-30T06:45:07;17.90;99.90
29813;DHT22;16707;48.106;11.548;2023-09-30T06:47:36;18.20;99.90
29813;DHT22;16707;48.106;11.548;2023-09-30T06:50:09;18.20;99.90
29813;DHT22;16707;48.106;11.548;2023-09-30T06:52:38;18.20;99.90
29813;DHT22;16707;48.106;11.548;2023-09-30T06:55:07;18.30;99.90
29813;DHT22;16707;48.106;11.548;2023-09-30T06:57:35;17.90;99.90
29813;DHT22;16707;48.106;11.548;2023-09-30T07:00:05;17.90;99.90
29813;DHT22;16707;48.106;11.548;2023-09-30T07:02:34;18.00;99.90
29813;DHT22;16707;48.106;11.548;2023-09-30T07:05:06;18.10;99.90
29813;DHT22;16707;48.106;11.548;2023-09-30T07:07:33;18.10;99.90
29813;DHT22;16707;48.106;11.548;2023-09-30T07:10:00;17.90;99.90
29813;DHT22;16707;48.106;11.548;2023-09-30T07:12:27;17.80;99.90
29813;DHT22;16707;48.106;11.548;2023-09-30T07:14:54;17.80;99.90
29813;DHT22;16707;48.106;11.548;2023-09-30T07:17:21;17.80;99.90
29813;DHT22;16707;48.106;11.548;2023-09-30T07:19:48;18.10;99.90
29813;DHT22;16707;48.106;11.548;2023-09-30T07:22:17;18.00;99.90
29813;DHT22;16707;48.106;11.548;2023-09-30T07:24:44;18.00;99.90
29813;DHT22;16707;48.106;11.548;2023-09-30T07:27:11;18.10;99.90
29813;DHT22;16707;48.106;11.548;2023-09-30T07:29:39;18.40;99.90
29813;DHT22;16707;48.106;11.548;2023-09-30T07:32:07;18.50;99.90
29813;DHT22;16707;48.106;11.548;2023-09-30T07:34:34;18.50;99.90
29813;DHT22;16707;48.106;11.548;2023-09-30T07:37:01;18.40;99.90
29813;DHT22;16707;48.106;11.548;2023-09-30T07:39:30;18.30;99.90
29813;DHT22;16707;48.106;11.548;2023-09-30T07:41:57;18.00;99.90
29813;DHT22;16707;48.106;11.548;2023-09-30T07:44:24;17.90;99.90
29813;DHT22;16707;48.106;11.548;2023-09-30T07:46:51;18.20;99.90
29813;DHT22;16707;48.106;11.548;2023-09-30T07:49:18;18.50;99.90
29813;DHT22;16707;48.106;11.548;2023-09-30T07:51:45;18.50;99.90
29813;DHT22;16707;48.106;11.548;2023-09-30T07:54:13;18.60;99.90
29813;DHT22;16707;48.106;11.548;2023-09-30T07:56:41;18.60;99.90
29813;DHT22;16707;48.106;11.548;2023-09-30T07:59:08;18.70;99.90
29813;DHT22;16707;48.106;11.548;2023-09-30T08:01:35;18.60;99.90
29813;DHT22;16707;48.106;11.548;2023-09-30T08:04:03;18.20;99.90
29813;DHT22;16707;48.106;11.548;2023-09-30T08:06:30;17.80;99.90
29813;DHT22;16707;48.106;11.548;2023-09-30T08:08:57;18.00;99.90
29813;DHT22;16707;48.106;11.548;2023-09-30T08:11:25;18.30;99.90
29813;DHT22;16707;48.106;11.548;2023-09-30T08:13:54;18.50;99.90
29813;DHT22;16707;48.106;11.548;2023-09-30T08:16:21;18.50;99.90
29813;DHT22;16707;48.106;11.548;2023-09-30T08:18:48;18.70;99.90
29813;DHT22;16707;48.106;11.548;2023-09-30T08:21:15;18.70;99.90
29813;DHT22;16707;48.106;11.548;2023-09-30T08:23:42;18.80;99.90
29813;DHT22;16707;48.106;11.548;2023-09-30T08:26:09;18.80;99.90
29813;DHT22;16707;48.106;11.548;2023-09-30T08:28:37;19.00;99.90
29813;DHT22;16707;48.106;11.548;2023-09-30T08:31:05;19.30;99.90
29813;DHT22;16707;48.106;11.548;2023-09-30T08:33:33;19.50;99.90
29813;DHT22;16707;48.106;11.548;2023-09-30T08:36:02;19.70;99.90
29813;DHT22;16707;48.106;11.548;2023-09-30T08:38:33;19.90;99.90
29813;DHT22;16707;48.106;11.548;2023-09-30T08:41:01;19.60;99.90
29813;DHT22;16707;48.106;11.548;2023-09-30T08:43:29;19.40;99.90
29813;DHT22;16707;48.106;11.548;2023-09-30T08:45:58;19.40;99.90
29813;DHT22;16707;48.106;11.548;2023-09-30T08:48:28;19.20;99.90
29813;DHT22;16707;48.106;11.548;2023-09-30T08:50:55;19.30;99.90
29813;DHT22;16707;48.106;11.548;2023-09-30T08:53:23;19.50;99.90
29813;DHT22;16707;48.106;11.548;2023-09-30T08:55:53;19.80;99.90
29813;DHT22;16707;48.106;11.548;2023-09-30T08:58:23;19.60;99.90
29813;DHT22;16707;48.106;11.548;2023-09-30T09:00:53;19.30;99.90
29813;DHT22;16707;48.106;11.548;2023-09-30T09:03:20;19.30;99.90
29813;DHT22;16707;48.106;11.548;2023-09-30T09:05:54;19.40;99.90
29813;DHT22;16707;48.106;11.548;2023-09-30T09:08:22;19.40;99.90
29813;DHT22;16707;48.106;11.548;2023-09-30T09:10:54;19.20;99.90
29813;DHT22;16707;48.106;11.548;2023-09-30T09:13:23;19.30;99.90
29813;DHT22;16707;48.106;11.548;2023-09-30T09:16:05;19.40;99.90
29813;DHT22;16707;48.106;11.548;2023-09-30T09:18:33;19.30;99.90
29813;DHT22;16707;48.106;11.548;2023-09-30T09:21:13;19.60;99.90
29813;DHT22;16707;48.106;11.548;2023-09-30T09:23:43;19.80;99.90
29813;DHT22;16707;48.106;11.548;2023-09-30T09:26:11;20.10;99.90
29813;DHT22;16707;48.106;11.548;2023-09-30T09:28:39;19.90;99.90
29813;DHT22;16707;48.106;11.548;2023-09-30T09:31:21;20.00;99.90
29813;DHT22;16707;48.106;11.548;2023-09-30T09:33:49;19.90;99.90
29813;DHT22;16707;48.106;11.548;2023-09-30T09:36:18;19.80;99.90
29813;DHT22;16707;48.106;11.548;2023-09-30T09:38:47;19.90;99.90
29813;DHT22;16707;48.106;11.548;2023-09-30T09:41:16;19.80;99.90
29813;DHT22;16707;48.106;11.548;2023-09-30T09:43:43;19.60;99.90
29813;DHT22;16707;48.106;11.548;2023-09-30T09:46:10;19.90;99.90
29813;DHT22;16707;48.106;11.548;2023-09-30T09:48:45;20.10;99.90
29813;DHT22;16707;48.106;11.548;2023-09-30T09:51:13;20.50;99.90
29813;DHT22;16707;48.106;11.548;2023-09-30T09:53:42;20.70;99.90
29813;DHT22;16707;48.106;11.548;2023-09-30T09:56:10;21.00;99.90
29813;DHT22;16707;48.106;11.548;2023-09-30T09:58:38;20.80;99.40
29813;DHT22;16707;48.106;11.548;2023-09-30T10:01:09;20.60;99.70
29813;DHT22;16707;48.106;11.548;2023-09-30T10:03:39;20.40;99.90
29813;DHT22;16707;48.106;11.548;2023-09-30T10:06:06;20.30;99.40
29813;DHT22;16707;48.106;11.548;2023-09-30T10:08:39;20.30;99.50
29813;DHT22;16707;48.106;11.548;2023-09-30T10:11:16;20.90;98.70
29813;DHT22;16707;48.106;11.548;2023-09-30T10:13:53;20.70;99.30
29813;DHT22;16707;48.106;11.548;2023-09-30T10:16:46;20.60;99.90
29813;DHT22;16707;48.106;11.548;2023-09-30T10:19:16;20.40;99.90
29813;DHT22;16707;48.106;11.548;2023-09-30T10:22:22;20.40;99.00
29813;DHT22;16707;48.106;11.548;2023-09-30T10:24:52;20.50;99.70
29813;DHT22;16707;48.106;11.548;2023-09-30T10:27:33;20.20;97.90
29813;DHT22;16707;48.106;11.548;2023-09-30T10:30:07;20.30;98.60
29813;DHT22;16707;48.106;11.548;2023-09-30T10:33:12;20.30;99.30
29813;DHT22;16707;48.106;11.548;2023-09-30T10:35:47;20.60;99.60
29813;DHT22;16707;48.106;11.548;2023-09-30T10:38:37;21.00;98.50
29813;DHT22;16707;48.106;11.548;2023-09-30T10:41:10;21.00;97.70
29813;DHT22;16707;48.106;11.548;2023-09-30T10:43:39;20.90;97.70
29813;DHT22;16707;48.106;11.548;2023-09-30T10:46:31;20.90;97.20
29813;DHT22;16707;48.106;11.548;2023-09-30T10:49:16;20.80;97.70
29813;DHT22;16707;48.106;11.548;2023-09-30T10:51:44;20.60;96.60
29813;DHT22;16707;48.106;11.548;2023-09-30T10:54:12;20.60;96.90
29813;DHT22;16707;48.106;11.548;2023-09-30T10:56:41;20.70;97.50
29813;DHT22;16707;48.106;11.548;2023-09-30T10:59:08;20.80;96.50
29813;DHT22;16707;48.106;11.548;2023-09-30T11:01:35;21.10;96.50
29813;DHT22;16707;48.106;11.548;2023-09-30T11:04:04;21.20;95.70
29813;DHT22;16707;48.106;11.548;2023-09-30T11:06:32;21.40;95.30
29813;DHT22;16707;48.106;11.548;2023-09-30T11:09:01;21.40;95.90
29813;DHT22;16707;48.106;11.548;2023-09-30T11:11:36;21.40;95.50
29813;DHT22;16707;48.106;11.548;2023-09-30T11:14:18;21.50;94.20
29813;DHT22;16707;48.106;11.548;2023-09-30T11:16:46;21.90;93.70
29813;DHT22;16707;48.106;11.548;2023-09-30T11:19:13;21.60;93.50
29813;DHT22;16707;48.106;11.548;2023-09-30T11:21:42;21.80;92.80
29813;DHT22;16707;48.106;11.548;2023-09-30T11:24:10;21.70;93.60
29813;DHT22;16707;48.106;11.548;2023-09-30T11:26:38;21.60;93.70
29813;DHT22;16707;48.106;11.548;2023-09-30T11:29:08;21.40;93.80
29813;DHT22;16707;48.106;11.548;2023-09-30T11:31:41;21.30;91.10
29813;DHT22;16707;48.106;11.548;2023-09-30T11:34:10;21.10;91.00
29813;DHT22;16707;48.106;11.548;2023-09-30T11:36:38;21.00;88.10
29813;DHT22;16707;48.106;11.548;2023-09-30T11:39:08;21.10;90.70
29813;DHT22;16707;48.106;11.548;2023-09-30T11:41:37;21.10;92.20
29813;DHT22;16707;48.106;11.548;2023-09-30T11:44:06;21.00;92.80
29813;DHT22;16707;48.106;11.548;2023-09-30T11:46:49;20.90;93.00
29813;DHT22;16707;48.106;11.548;2023-09-30T11:49:28;21.00;92.50
29813;DHT22;16707;48.106;11.548;2023-09-30T11:51:58;21.10;92.60
29813;DHT22;16707;48.106;11.548;2023-09-30T11:54:30;21.10;92.70
29813;DHT22;16707;48.106;11.548;2023-09-30T11:56:58;21.00;92.10
29813;DHT22;16707;48.106;11.548;2023-09-30T11:59:26;21.20;91.20
29813;DHT22;16707;48.106;11.548;2023-09-30T12:01:54;21.30;93.70
29813;DHT22;16707;48.106;11.548;2023-09-30T12:04:21;21.50;92.50
29813;DHT22;16707;48.106;11.548;2023-09-30T12:06:49;21.90;91.20
29813;DHT22;16707;48.106;11.548;2023-09-30T12:09:16;21.70;91.70
29813;DHT22;16707;48.106;11.548;2023-09-30T12:11:48;21.10;91.50
29813;DHT22;16707;48.106;11.548;2023-09-30T12:14:15;20.70;92.20
29813;DHT22;16707;48.106;11.548;2023-09-30T12:16:42;20.50;92.40
29813;DHT22;16707;48.106;11.548;2023-09-30T12:19:12;20.50;93.00
29813;DHT22;16707;48.106;11.548;2023-09-30T12:21:41;20.50;93.10
29813;DHT22;16707;48.106;11.548;2023-09-30T12:24:09;20.50;91.40
29813;DHT22;16707;48.106;11.548;2023-09-30T12:26:39;20.60;91.70
29813;DHT22;16707;48.106;11.548;2023-09-30T12:29:06;20.60;90.70
29813;DHT22;16707;48.106;11.548;2023-09-30T12:31:35;20.90;90.90
29813;DHT22;16707;48.106;11.548;2023-09-30T12:34:02;21.00;90.40
29813;DHT22;16707;48.106;11.548;2023-09-30T12:36:30;20.90;90.70
29813;DHT22;16707;48.106;11.548;2023-09-30T12:38:58;20.90;91.70
29813;DHT22;16707;48.106;11.548;2023-09-30T12:41:25;20.70;91.20
29813;DHT22;16707;48.106;11.548;2023-09-30T12:43:52;20.80;91.20
29813;DHT22;16707;48.106;11.548;2023-09-30T12:46:20;20.90;92.20
29813;DHT22;16707;48.106;11.548;2023-09-30T12:48:46;20.80;90.10
29813;DHT22;16707;48.106;11.548;2023-09-30T12:51:14;20.90;85.70
29813;DHT22;16707;48.106;11.548;2023-09-30T12:53:45;20.90;84.90
29813;DHT22;16707;48.106;11.548;2023-09-30T12:56:13;20.90;87.40
29813;DHT22;16707;48.106;11.548;2023-09-30T12:58:40;20.50;87.70
29813;DHT22;16707;48.106;11.548;2023-09-30T13:01:08;20.70;89.60
29813;DHT22;16707;48.106;11.548;2023-09-30T13:03:35;20.70;90.10
29813;DHT22;16707;48.106;11.548;2023-09-30T13:06:02;20.70;89.80
29813;DHT22;16707;48.106;11.548;2023-09-30T13:08:30;21.10;89.80
29813;DHT22;16707;48.106;11.548;2023-09-30T13:11:00;21.50;89.00
29813;DHT22;16707;48.106;11.548;2023-09-30T13:13:28;22.10;85.40
29813;DHT22;16707;48.106;11.548;2023-09-30T13:15:56;22.30;81.60
29813;DHT22;16707;48.106;11.548;2023-09-30T13:18:23;22.40;80.70
29813;DHT22;16707;48.106;11.548;2023-09-30T13:20:50;22.20;83.00
29813;DHT22;16707;48.106;11.548;2023-09-30T13:23:18;22.20;83.20
29813;DHT22;16707;48.106;11.548;2023-09-30T13:25:46;22.50;83.50
29813;DHT22;16707;48.106;11.548;2023-09-30T13:28:14;22.00;82.00
29813;DHT22;16707;48.106;11.548;2023-09-30T13:30:42;21.80;85.80
29813;DHT22;16707;48.106;11.548;2023-09-30T13:33:09;21.90;87.50
29813;DHT22;16707;48.106;11.548;2023-09-30T13:35:36;22.00;85.60
29813;DHT22;16707;48.106;11.548;2023-09-30T13:38:03;22.00;86.40
29813;DHT22;16707;48.106;11.548;2023-09-30T13:40:31;21.70;90.90
29813;DHT22;16707;48.106;11.548;2023-09-30T13:42:58;21.80;87.90
29813;DHT22;16707;48.106;11.548;2023-09-30T13:45:26;21.80;84.80
29813;DHT22;16707;48.106;11.548;2023-09-30T13:47:54;21.80;86.70
29813;DHT22;16707;48.106;11.548;2023-09-30T13:50:21;21.90;88.50
29813;DHT22;16707;48.106;11.548;2023-09-30T13:52:48;21.80;85.70
29813;DHT22;16707;48.106;11.548;2023-09-30T13:55:15;21.70;87.90
29813;DHT22;16707;48.106;11.548;2023-09-30T13:57:44;21.10;90.00
29813;DHT22;16707;48.106;11.548;2023-09-30T14:00:13;21.00;90.40
29813;DHT22;16707;48.106;11.548;2023-09-30T14:02:43;20.80;90.90
29813;DHT22;16707;48.106;11.548;2023-09-30T14:05:10;21.00;90.60
29813;DHT22;16707;48.106;11.548;2023-09-30T14:07:40;20.90;90.80
29813;DHT22;16707;48.106;11.548;2023-09-30T14:10:08;21.10;90.60
29813;DHT22;16707;48.106;11.548;2023-09-30T14:12:36;21.20;90.90
29813;DHT22;16707;48.106;11.548;2023-09-30T14:15:05;21.30;91.20
29813;DHT22;16707;48.106;11.548;2023-09-30T14:17:33;21.20;90.50
29813;DHT22;16707;48.106;11.548;2023-09-30T14:20:03;21.20;91.00
29813;DHT22;16707;48.106;11.548;2023-09-30T14:22:31;21.20;91.20
29813;DHT22;16707;48.106;11.548;2023-09-30T14:24:58;21.30;90.50
29813;DHT22;16707;48.106;11.548;2023-09-30T14:27:25;21.20;91.00
29813;DHT22;16707;48.106;11.548;2023-09-30T14:29:52;21.10;91.10
29813;DHT22;16707;48.106;11.548;2023-09-30T14:32:19;21.00;91.40
29813;DHT22;16707;48.106;11.548;2023-09-30T14:34:46;21.00;92.10
29813;DHT22;16707;48.106;11.548;2023-09-30T14:37:15;20.80;91.50
29813;DHT22;16707;48.106;11.548;2023-09-30T14:39:42;20.50;92.30
29813;DHT22;16707;48.106;11.548;2023-09-30T14:42:09;20.50;93.00
29813;DHT22;16707;48.106;11.548;2023-09-30T14:44:36;20.50;93.10
29813;DHT22;16707;48.106;11.548;2023-09-30T14:47:04;20.70;92.90
29813;DHT22;16707;48.106;11.548;2023-09-30T14:49:31;20.70;91.90
29813;DHT22;16707;48.106;11.548;2023-09-30T14:51:58;20.70;91.70
29813;DHT22;16707;48.106;11.548;2023-09-30T14:54:26;20.60;93.80
29813;DHT22;16707;48.106;11.548;2023-09-30T14:56:53;20.50;93.10
29813;DHT22;16707;48.106;11.548;2023-09-30T14:59:20;20.50;92.90
29813;DHT22;16707;48.106;11.548;2023-09-30T15:01:47;20.60;93.40
29813;DHT22;16707;48.106;11.548;2023-09-30T15:04:15;20.50;92.60
29813;DHT22;16707;48.106;11.548;2023-09-30T15:06:42;20.50;92.10
29813;DHT22;16707;48.106;11.548;2023-09-30T15:09:09;20.60;92.60
29813;DHT22;16707;48.106;11.548;2023-09-30T15:11:38;20.60;93.10
29813;DHT22;16707;48.106;11.548;2023-09-30T15:14:06;20.50;92.80
29813;DHT22;16707;48.106;11.548;2023-09-30T15:16:33;20.30;94.20
29813;DHT22;16707;48.106;11.548;2023-09-30T15:19:01;20.40;91.70
29813;DHT22;16707;48.106;11.548;2023-09-30T15:21:28;20.30;91.90
29813;DHT22;16707;48.106;11.548;2023-09-30T15:23:55;20.20;92.10